sensor_id;sensor_type;location;lat;lon;timestamp;pressure;altitude;pressure_sealevel;temperature
74485;BMP280;62942;52.462;10.846;2023-06-14T00:00:50;100960;;;
74485;BMP280;62942;52.462;10.846;2023-06-14T00:02:00;100960;;;
74485;BMP280;62942;52.462;10.846;2023-06-14T00:03:00;100960;;;
74485;BMP280;62942;52.462;10.846;2023-06-14T00:04:10;100950;;;
74485;BMP280;62942;52.462;10.846;2023-06-14T00:05:10;100960;;;
74485;BMP280;62942;52.462;10.846;2023-06-14T00:06:20;100960;;;
74485;BMP280;62942;52.462;10.846;2023-06-14T00:07:22;100960;;;
74485;BMP280;62942;52.462;10.846;2023-06-14T00:08:20;100960;;;
74485;BMP280;62942;52.462;10.846;2023-06-14T00:09:30;100960;;;
74485;BMP280;62942;52.462;10.846;2023-06-14T00:10:40;100960;;;
74485;BMP280;62942;52.462;10.846;2023-06-14T00:11:40;100960;;;
74485;BMP280;62942;52.462;10.846;2023-06-14T00:12:50;100960;;;
74485;BMP280;62942;52.462;10.846;2023-06-14T00:13:50;100960;;;
74485;BMP280;62942;52.462;10.846;2023-06-14T00:15:00;100960;;;
74485;BMP280;62942;52.462;10.846;2023-06-14T00:16:10;100960;;;
74485;BMP280;62942;52.462;10.846;2023-06-14T00:17:10;100960;;;
74485;BMP280;62942;52.462;10.846;2023-06-14T00:18:20;100960;;;
74485;BMP280;62942;52.462;10.846;2023-06-14T00:19:20;100960;;;
74485;BMP280;62942;52.462;10.846;2023-06-14T00:20:30;100960;;;
74485;BMP280;62942;52.462;10.846;2023-06-14T00:21:30;100960;;;
74485;BMP280;62942;52.462;10.846;2023-06-14T00:22:40;100960;;;
74485;BMP280;62942;52.462;10.846;2023-06-14T00:23:50;100970;;;
74485;BMP280;62942;52.462;10.846;2023-06-14T00:25:00;100960;;;
74485;BMP280;62942;52.462;10.846;2023-06-14T00:26:10;100970;;;
74485;BMP280;62942;52.462;10.846;2023-06-14T00:27:10;100970;;;
74485;BMP280;62942;52.462;10.846;2023-06-14T00:28:20;100970;;;
74485;BMP280;62942;52.462;10.846;2023-06-14T00:29:30;100960;;;
74485;BMP280;62942;52.462;10.846;2023-06-14T00:30:30;100970;;;
74485;BMP280;62942;52.462;10.846;2023-06-14T00:31:40;100980;;;
74485;BMP280;62942;52.462;10.846;2023-06-14T00:32:40;100970;;;
74485;BMP280;62942;52.462;10.846;2023-06-14T00:33:50;100980;;;
74485;BMP280;62942;52.462;10.846;2023-06-14T00:35:00;100980;;;
74485;BMP280;62942;52.462;10.846;2023-06-14T00:36:10;100980;;;
74485;BMP280;62942;52.462;10.846;2023-06-14T00:37:20;100980;;;
74485;BMP280;62942;52.462;10.846;2023-06-14T00:38:30;100980;;;
74485;BMP280;62942;52.462;10.846;2023-06-14T00:39:40;100980;;;
74485;BMP280;62942;52.462;10.846;2023-06-14T00:40:50;100980;;;
74485;BMP280;62942;52.462;10.846;2023-06-14T00:41:50;100990;;;
74485;BMP280;62942;52.462;10.846;2023-06-14T00:43:00;100990;;;
74485;BMP280;62942;52.462;10.846;2023-06-14T00:44:00;100990;;;
74485;BMP280;62942;52.462;10.846;2023-06-14T00:45:10;100990;;;
74485;BMP280;62942;52.462;10.846;2023-06-14T00:46:10;100990;;;
74485;BMP280;62942;52.462;10.846;2023-06-14T00:47:20;100990;;;
74485;BMP280;62942;52.462;10.846;2023-06-14T00:48:20;100990;;;
74485;BMP280;62942;52.462;10.846;2023-06-14T00:49:30;100980;;;
74485;BMP280;62942;52.462;10.846;2023-06-14T00:50:40;100990;;;
74485;BMP280;62942;52.462;10.846;2023-06-14T00:51:40;100990;;;
74485;BMP280;62942;52.462;10.846;2023-06-14T00:52:50;100980;;;
74485;BMP280;62942;52.462;10.846;2023-06-14T00:53:50;100980;;;
74485;BMP280;62942;52.462;10.846;2023-06-14T00:55:00;100990;;;
74485;BMP280;62942;52.462;10.846;2023-06-14T00:56:00;100980;;;
74485;BMP280;62942;52.462;10.846;2023-06-14T00:57:10;100990;;;
74485;BMP280;62942;52.462;10.846;2023-06-14T00:58:10;100990;;;
74485;BMP280;62942;52.462;10.846;2023-06-14T00:59:20;100990;;;
74485;BMP280;62942;52.462;10.846;2023-06-14T01:00:20;100990;;;
74485;BMP280;62942;52.462;10.846;2023-06-14T01:01:30;100990;;;
74485;BMP280;62942;52.462;10.846;2023-06-14T01:02:30;101000;;;
74485;BMP280;62942;52.462;10.846;2023-06-14T01:03:40;100990;;;
74485;BMP280;62942;52.462;10.846;2023-06-14T01:04:40;100990;;;
74485;BMP280;62942;52.462;10.846;2023-06-14T01:05:50;101000;;;
74485;BMP280;62942;52.462;10.846;2023-06-14T01:07:02;100990;;;
74485;BMP280;62942;52.462;10.846;2023-06-14T01:08:13;101000;;;
74485;BMP280;62942;52.462;10.846;2023-06-14T01:09:13;100990;;;
74485;BMP280;62942;52.462;10.846;2023-06-14T01:10:23;100990;;;
74485;BMP280;62942;52.462;10.846;2023-06-14T01:11:22;100990;;;
74485;BMP280;62942;52.462;10.846;2023-06-14T01:12:31;100990;;;
74485;BMP280;62942;52.462;10.846;2023-06-14T01:13:32;100990;;;
74485;BMP280;62942;52.462;10.846;2023-06-14T01:14:30;101000;;;
74485;BMP280;62942;52.462;10.846;2023-06-14T01:15:40;100990;;;
74485;BMP280;62942;52.462;10.846;2023-06-14T01:16:50;101000;;;
74485;BMP280;62942;52.462;10.846;2023-06-14T01:18:00;100990;;;
74485;BMP280;62942;52.462;10.846;2023-06-14T01:19:00;100990;;;
74485;BMP280;62942;52.462;10.846;2023-06-14T01:20:10;100990;;;
74485;BMP280;62942;52.462;10.846;2023-06-14T01:21:19;101000;;;
74485;BMP280;62942;52.462;10.846;2023-06-14T01:22:20;101000;;;
74485;BMP280;62942;52.462;10.846;2023-06-14T01:23:20;101000;;;
74485;BMP280;62942;52.462;10.846;2023-06-14T01:24:20;100990;;;
74485;BMP280;62942;52.462;10.846;2023-06-14T01:25:30;100990;;;
74485;BMP280;62942;52.462;10.846;2023-06-14T01:26:30;101000;;;
74485;BMP280;62942;52.462;10.846;2023-06-14T01:27:40;100990;;;
74485;BMP280;62942;52.462;10.846;2023-06-14T01:28:40;101000;;;
74485;BMP280;62942;52.462;10.846;2023-06-14T01:29:50;101000;;;
74485;BMP280;62942;52.462;10.846;2023-06-14T01:31:00;101000;;;
74485;BMP280;62942;52.462;10.846;2023-06-14T01:32:00;100990;;;
74485;BMP280;62942;52.462;10.846;2023-06-14T01:33:10;101000;;;
74485;BMP280;62942;52.462;10.846;2023-06-14T01:34:20;101000;;;
74485;BMP280;62942;52.462;10.846;2023-06-14T01:35:20;101000;;;
74485;BMP280;62942;52.462;10.846;2023-06-14T01:36:30;101000;;;
74485;BMP280;62942;52.462;10.846;2023-06-14T01:37:40;101000;;;
74485;BMP280;62942;52.462;10.846;2023-06-14T01:38:50;101000;;;
74485;BMP280;62942;52.462;10.846;2023-06-14T01:40:00;100990;;;
74485;BMP280;62942;52.462;10.846;2023-06-14T01:41:00;100990;;;
74485;BMP280;62942;52.462;10.846;2023-06-14T01:42:10;100990;;;
74485;BMP280;62942;52.462;10.846;2023-06-14T01:43:20;100990;;;
74485;BMP280;62942;52.462;10.846;2023-06-14T01:44:20;101000;;;
74485;BMP280;62942;52.462;10.846;2023-06-14T01:45:20;100990;;;
74485;BMP280;62942;52.462;10.846;2023-06-14T01:46:30;101000;;;
74485;BMP280;62942;52.462;10.846;2023-06-14T01:47:40;101000;;;
74485;BMP280;62942;52.462;10.846;2023-06-14T01:48:40;101000;;;
74485;BMP280;62942;52.462;10.846;2023-06-14T01:49:50;101000;;;
74485;BMP280;62942;52.462;10.846;2023-06-14T01:50:50;101000;;;
74485;BMP280;62942;52.462;10.846;2023-06-14T01:52:00;101000;;;
74485;BMP280;62942;52.462;10.846;2023-06-14T01:53:10;100990;;;
74485;BMP280;62942;52.462;10.846;2023-06-14T01:54:20;101000;;;
74485;BMP280;62942;52.462;10.846;2023-06-14T01:55:29;101000;;;
74485;BMP280;62942;52.462;10.846;2023-06-14T01:56:30;101000;;;
74485;BMP280;62942;52.462;10.846;2023-06-14T01:57:30;101000;;;
74485;BMP280;62942;52.462;10.846;2023-06-14T01:58:40;101000;;;
74485;BMP280;62942;52.462;10.846;2023-06-14T01:59:40;101010;;;
74485;BMP280;62942;52.462;10.846;2023-06-14T02:00:40;101000;;;
74485;BMP280;62942;52.462;10.846;2023-06-14T02:01:49;101000;;;
74485;BMP280;62942;52.462;10.846;2023-06-14T02:02:50;101000;;;
74485;BMP280;62942;52.462;10.846;2023-06-14T02:03:50;101000;;;
74485;BMP280;62942;52.462;10.846;2023-06-14T02:05:00;101000;;;
74485;BMP280;62942;52.462;10.846;2023-06-14T02:06:10;101000;;;
74485;BMP280;62942;52.462;10.846;2023-06-14T02:07:10;101000;;;
74485;BMP280;62942;52.462;10.846;2023-06-14T02:08:10;101000;;;
74485;BMP280;62942;52.462;10.846;2023-06-14T02:09:20;101000;;;
74485;BMP280;62942;52.462;10.846;2023-06-14T02:10:30;101000;;;
74485;BMP280;62942;52.462;10.846;2023-06-14T02:11:40;101000;;;
74485;BMP280;62942;52.462;10.846;2023-06-14T02:12:50;101000;;;
74485;BMP280;62942;52.462;10.846;2023-06-14T02:13:59;101000;;;
74485;BMP280;62942;52.462;10.846;2023-06-14T02:14:59;101000;;;
74485;BMP280;62942;52.462;10.846;2023-06-14T02:16:00;101000;;;
74485;BMP280;62942;52.462;10.846;2023-06-14T02:17:10;101000;;;
74485;BMP280;62942;52.462;10.846;2023-06-14T02:18:20;101000;;;
74485;BMP280;62942;52.462;10.846;2023-06-14T02:19:29;101000;;;
74485;BMP280;62942;52.462;10.846;2023-06-14T02:20:29;101000;;;
74485;BMP280;62942;52.462;10.846;2023-06-14T02:21:30;101000;;;
74485;BMP280;62942;52.462;10.846;2023-06-14T02:22:40;101000;;;
74485;BMP280;62942;52.462;10.846;2023-06-14T02:23:50;101000;;;
74485;BMP280;62942;52.462;10.846;2023-06-14T02:25:00;101010;;;
74485;BMP280;62942;52.462;10.846;2023-06-14T02:26:10;101010;;;
74485;BMP280;62942;52.462;10.846;2023-06-14T02:27:19;101000;;;
74485;BMP280;62942;52.462;10.846;2023-06-14T02:28:19;101010;;;
74485;BMP280;62942;52.462;10.846;2023-06-14T02:29:29;101010;;;
74485;BMP280;62942;52.462;10.846;2023-06-14T02:30:39;101010;;;
74485;BMP280;62942;52.462;10.846;2023-06-14T02:31:49;101010;;;
74485;BMP280;62942;52.462;10.846;2023-06-14T02:32:49;101010;;;
74485;BMP280;62942;52.462;10.846;2023-06-14T02:33:49;101010;;;
74485;BMP280;62942;52.462;10.846;2023-06-14T02:34:59;101010;;;
74485;BMP280;62942;52.462;10.846;2023-06-14T02:36:00;101010;;;
74485;BMP280;62942;52.462;10.846;2023-06-14T02:36:59;101000;;;
74485;BMP280;62942;52.462;10.846;2023-06-14T02:38:09;101000;;;
74485;BMP280;62942;52.462;10.846;2023-06-14T02:39:19;101010;;;
74485;BMP280;62942;52.462;10.846;2023-06-14T02:40:29;101000;;;
74485;BMP280;62942;52.462;10.846;2023-06-14T02:41:39;101010;;;
74485;BMP280;62942;52.462;10.846;2023-06-14T02:42:39;101000;;;
74485;BMP280;62942;52.462;10.846;2023-06-14T02:43:39;101000;;;
74485;BMP280;62942;52.462;10.846;2023-06-14T02:44:49;101010;;;
74485;BMP280;62942;52.462;10.846;2023-06-14T02:45:59;101010;;;
74485;BMP280;62942;52.462;10.846;2023-06-14T02:47:09;101010;;;
74485;BMP280;62942;52.462;10.846;2023-06-14T02:48:09;101010;;;
74485;BMP280;62942;52.462;10.846;2023-06-14T02:49:09;101010;;;
74485;BMP280;62942;52.462;10.846;2023-06-14T02:50:20;101010;;;
74485;BMP280;62942;52.462;10.846;2023-06-14T02:51:29;101020;;;
74485;BMP280;62942;52.462;10.846;2023-06-14T02:52:29;101020;;;
74485;BMP280;62942;52.462;10.846;2023-06-14T02:53:39;101020;;;
74485;BMP280;62942;52.462;10.846;2023-06-14T02:54:39;101020;;;
74485;BMP280;62942;52.462;10.846;2023-06-14T02:55:49;101020;;;
74485;BMP280;62942;52.462;10.846;2023-06-14T02:57:00;101020;;;
74485;BMP280;62942;52.462;10.846;2023-06-14T02:58:09;101020;;;
74485;BMP280;62942;52.462;10.846;2023-06-14T02:59:20;101020;;;
74485;BMP280;62942;52.462;10.846;2023-06-14T03:00:29;101030;;;
74485;BMP280;62942;52.462;10.846;2023-06-14T03:01:40;101030;;;
74485;BMP280;62942;52.462;10.846;2023-06-14T03:02:49;101030;;;
74485;BMP280;62942;52.462;10.846;2023-06-14T03:03:49;101030;;;
74485;BMP280;62942;52.462;10.846;2023-06-14T03:04:49;101020;;;
74485;BMP280;62942;52.462;10.846;2023-06-14T03:05:59;101020;;;
74485;BMP280;62942;52.462;10.846;2023-06-14T03:07:09;101020;;;
74485;BMP280;62942;52.462;10.846;2023-06-14T03:08:20;101020;;;
74485;BMP280;62942;52.462;10.846;2023-06-14T03:09:19;101020;;;
74485;BMP280;62942;52.462;10.846;2023-06-14T03:10:29;101020;;;
74485;BMP280;62942;52.462;10.846;2023-06-14T03:11:30;101020;;;
74485;BMP280;62942;52.462;10.846;2023-06-14T03:12:29;101020;;;
74485;BMP280;62942;52.462;10.846;2023-06-14T03:13:39;101030;;;
74485;BMP280;62942;52.462;10.846;2023-06-14T03:14:39;101040;;;
74485;BMP280;62942;52.462;10.846;2023-06-14T03:15:49;101040;;;
74485;BMP280;62942;52.462;10.846;2023-06-14T03:16:59;101040;;;
74485;BMP280;62942;52.462;10.846;2023-06-14T03:18:09;101050;;;
74485;BMP280;62942;52.462;10.846;2023-06-14T03:19:19;101040;;;
74485;BMP280;62942;52.462;10.846;2023-06-14T03:20:29;101040;;;
74485;BMP280;62942;52.462;10.846;2023-06-14T03:21:39;101050;;;
74485;BMP280;62942;52.462;10.846;2023-06-14T03:22:49;101040;;;
74485;BMP280;62942;52.462;10.846;2023-06-14T03:23:59;101050;;;
74485;BMP280;62942;52.462;10.846;2023-06-14T03:24:59;101050;;;
74485;BMP280;62942;52.462;10.846;2023-06-14T03:26:09;101050;;;
74485;BMP280;62942;52.462;10.846;2023-06-14T03:27:20;101050;;;
74485;BMP280;62942;52.462;10.846;2023-06-14T03:28:29;101060;;;
74485;BMP280;62942;52.462;10.846;2023-06-14T03:29:29;101050;;;
74485;BMP280;62942;52.462;10.846;2023-06-14T03:30:39;101050;;;
74485;BMP280;62942;52.462;10.846;2023-06-14T03:31:41;101050;;;
74485;BMP280;62942;52.462;10.846;2023-06-14T03:32:39;101050;;;
74485;BMP280;62942;52.462;10.846;2023-06-14T03:33:49;101060;;;
74485;BMP280;62942;52.462;10.846;2023-06-14T03:34:49;101060;;;
74485;BMP280;62942;52.462;10.846;2023-06-14T03:35:49;101060;;;
74485;BMP280;62942;52.462;10.846;2023-06-14T03:36:59;101050;;;
74485;BMP280;62942;52.462;10.846;2023-06-14T03:38:09;101060;;;
74485;BMP280;62942;52.462;10.846;2023-06-14T03:39:19;101060;;;
74485;BMP280;62942;52.462;10.846;2023-06-14T03:40:20;101060;;;
74485;BMP280;62942;52.462;10.846;2023-06-14T03:41:29;101060;;;
74485;BMP280;62942;52.462;10.846;2023-06-14T03:42:39;101070;;;
74485;BMP280;62942;52.462;10.846;2023-06-14T03:43:39;101070;;;
74485;BMP280;62942;52.462;10.846;2023-06-14T03:44:39;101070;;;
74485;BMP280;62942;52.462;10.846;2023-06-14T03:45:49;101070;;;
74485;BMP280;62942;52.462;10.846;2023-06-14T03:46:49;101070;;;
74485;BMP280;62942;52.462;10.846;2023-06-14T03:47:59;101070;;;
74485;BMP280;62942;52.462;10.846;2023-06-14T03:49:09;101070;;;
74485;BMP280;62942;52.462;10.846;2023-06-14T03:50:10;101080;;;
74485;BMP280;62942;52.462;10.846;2023-06-14T03:51:09;101080;;;
74485;BMP280;62942;52.462;10.846;2023-06-14T03:52:19;101080;;;
74485;BMP280;62942;52.462;10.846;2023-06-14T03:53:29;101080;;;
74485;BMP280;62942;52.462;10.846;2023-06-14T03:54:29;101090;;;
74485;BMP280;62942;52.462;10.846;2023-06-14T03:55:30;101090;;;
74485;BMP280;62942;52.462;10.846;2023-06-14T03:56:39;101080;;;
74485;BMP280;62942;52.462;10.846;2023-06-14T03:57:39;101090;;;
74485;BMP280;62942;52.462;10.846;2023-06-14T03:58:49;101080;;;
74485;BMP280;62942;52.462;10.846;2023-06-14T03:59:59;101080;;;
74485;BMP280;62942;52.462;10.846;2023-06-14T04:01:09;101080;;;
74485;BMP280;62942;52.462;10.846;2023-06-14T04:02:19;101090;;;
74485;BMP280;62942;52.462;10.846;2023-06-14T04:03:29;101090;;;
74485;BMP280;62942;52.462;10.846;2023-06-14T04:04:39;101080;;;
74485;BMP280;62942;52.462;10.846;2023-06-14T04:05:49;101080;;;
74485;BMP280;62942;52.462;10.846;2023-06-14T04:06:49;101080;;;
74485;BMP280;62942;52.462;10.846;2023-06-14T04:07:59;101080;;;
74485;BMP280;62942;52.462;10.846;2023-06-14T04:08:59;101090;;;
74485;BMP280;62942;52.462;10.846;2023-06-14T04:10:09;101090;;;
74485;BMP280;62942;52.462;10.846;2023-06-14T04:11:09;101080;;;
74485;BMP280;62942;52.462;10.846;2023-06-14T04:12:19;101080;;;
74485;BMP280;62942;52.462;10.846;2023-06-14T04:13:29;101080;;;
74485;BMP280;62942;52.462;10.846;2023-06-14T04:14:40;101080;;;
74485;BMP280;62942;52.462;10.846;2023-06-14T04:15:49;101090;;;
74485;BMP280;62942;52.462;10.846;2023-06-14T04:16:49;101090;;;
74485;BMP280;62942;52.462;10.846;2023-06-14T04:17:59;101090;;;
74485;BMP280;62942;52.462;10.846;2023-06-14T04:19:00;101090;;;
74485;BMP280;62942;52.462;10.846;2023-06-14T04:20:09;101090;;;
74485;BMP280;62942;52.462;10.846;2023-06-14T04:21:19;101090;;;
74485;BMP280;62942;52.462;10.846;2023-06-14T04:22:29;101090;;;
74485;BMP280;62942;52.462;10.846;2023-06-14T04:23:39;101090;;;
74485;BMP280;62942;52.462;10.846;2023-06-14T04:24:49;101090;;;
74485;BMP280;62942;52.462;10.846;2023-06-14T04:25:49;101090;;;
74485;BMP280;62942;52.462;10.846;2023-06-14T04:26:59;101080;;;
74485;BMP280;62942;52.462;10.846;2023-06-14T04:28:09;101080;;;
74485;BMP280;62942;52.462;10.846;2023-06-14T04:29:09;101070;;;
74485;BMP280;62942;52.462;10.846;2023-06-14T04:30:10;101080;;;
74485;BMP280;62942;52.462;10.846;2023-06-14T04:31:19;101080;;;
74485;BMP280;62942;52.462;10.846;2023-06-14T04:32:29;101080;;;
74485;BMP280;62942;52.462;10.846;2023-06-14T04:33:39;101080;;;
74485;BMP280;62942;52.462;10.846;2023-06-14T04:34:49;101080;;;
74485;BMP280;62942;52.462;10.846;2023-06-14T04:35:59;101100;;;
74485;BMP280;62942;52.462;10.846;2023-06-14T04:37:09;101100;;;
74485;BMP280;62942;52.462;10.846;2023-06-14T04:38:19;101100;;;
74485;BMP280;62942;52.462;10.846;2023-06-14T04:39:29;101090;;;
74485;BMP280;62942;52.462;10.846;2023-06-14T04:40:29;101100;;;
74485;BMP280;62942;52.462;10.846;2023-06-14T04:41:39;101100;;;
74485;BMP280;62942;52.462;10.846;2023-06-14T04:42:49;101100;;;
74485;BMP280;62942;52.462;10.846;2023-06-14T04:43:49;101100;;;
74485;BMP280;62942;52.462;10.846;2023-06-14T04:44:49;101100;;;
74485;BMP280;62942;52.462;10.846;2023-06-14T04:45:59;101100;;;
74485;BMP280;62942;52.462;10.846;2023-06-14T04:46:59;101100;;;
74485;BMP280;62942;52.462;10.846;2023-06-14T04:47:59;101100;;;
74485;BMP280;62942;52.462;10.846;2023-06-14T04:49:09;101100;;;
74485;BMP280;62942;52.462;10.846;2023-06-14T04:50:09;101100;;;
74485;BMP280;62942;52.462;10.846;2023-06-14T04:51:09;101100;;;
74485;BMP280;62942;52.462;10.846;2023-06-14T04:52:19;101100;;;
74485;BMP280;62942;52.462;10.846;2023-06-14T04:53:19;101110;;;
74485;BMP280;62942;52.462;10.846;2023-06-14T04:54:19;101100;;;
74485;BMP280;62942;52.462;10.846;2023-06-14T04:55:29;101110;;;
74485;BMP280;62942;52.462;10.846;2023-06-14T04:56:29;101100;;;
74485;BMP280;62942;52.462;10.846;2023-06-14T04:57:39;101100;;;
74485;BMP280;62942;52.462;10.846;2023-06-14T04:58:49;101110;;;
74485;BMP280;62942;52.462;10.846;2023-06-14T04:59:59;101110;;;
74485;BMP280;62942;52.462;10.846;2023-06-14T05:00:59;101100;;;
74485;BMP280;62942;52.462;10.846;2023-06-14T05:02:09;101100;;;
74485;BMP280;62942;52.462;10.846;2023-06-14T05:03:09;101100;;;
74485;BMP280;62942;52.462;10.846;2023-06-14T05:04:19;101100;;;
74485;BMP280;62942;52.462;10.846;2023-06-14T05:05:29;101100;;;
74485;BMP280;62942;52.462;10.846;2023-06-14T05:06:29;101100;;;
74485;BMP280;62942;52.462;10.846;2023-06-14T05:07:39;101110;;;
74485;BMP280;62942;52.462;10.846;2023-06-14T05:08:49;101100;;;
74485;BMP280;62942;52.462;10.846;2023-06-14T05:09:49;101110;;;
74485;BMP280;62942;52.462;10.846;2023-06-14T05:10:59;101110;;;
74485;BMP280;62942;52.462;10.846;2023-06-14T05:11:59;101110;;;
74485;BMP280;62942;52.462;10.846;2023-06-14T05:13:09;101110;;;
74485;BMP280;62942;52.462;10.846;2023-06-14T05:14:19;101120;;;
74485;BMP280;62942;52.462;10.846;2023-06-14T05:15:19;101120;;;
74485;BMP280;62942;52.462;10.846;2023-06-14T05:16:29;101110;;;
74485;BMP280;62942;52.462;10.846;2023-06-14T05:17:29;101110;;;
74485;BMP280;62942;52.462;10.846;2023-06-14T05:18:39;101110;;;
74485;BMP280;62942;52.462;10.846;2023-06-14T05:19:49;101110;;;
74485;BMP280;62942;52.462;10.846;2023-06-14T05:20:49;101120;;;
74485;BMP280;62942;52.462;10.846;2023-06-14T05:21:59;101120;;;
74485;BMP280;62942;52.462;10.846;2023-06-14T05:22:59;101120;;;
74485;BMP280;62942;52.462;10.846;2023-06-14T05:24:09;101110;;;
74485;BMP280;62942;52.462;10.846;2023-06-14T05:25:19;101110;;;
74485;BMP280;62942;52.462;10.846;2023-06-14T05:26:19;101110;;;
74485;BMP280;62942;52.462;10.846;2023-06-14T05:27:29;101120;;;
74485;BMP280;62942;52.462;10.846;2023-06-14T05:28:39;101120;;;
74485;BMP280;62942;52.462;10.846;2023-06-14T05:29:39;101110;;;
74485;BMP280;62942;52.462;10.846;2023-06-14T05:30:49;101120;;;
74485;BMP280;62942;52.462;10.846;2023-06-14T05:31:59;101110;;;
74485;BMP280;62942;52.462;10.846;2023-06-14T05:33:09;101110;;;
74485;BMP280;62942;52.462;10.846;2023-06-14T05:34:09;101110;;;
74485;BMP280;62942;52.462;10.846;2023-06-14T05:35:19;101110;;;
74485;BMP280;62942;52.462;10.846;2023-06-14T05:36:19;101110;;;
74485;BMP280;62942;52.462;10.846;2023-06-14T05:37:29;101120;;;
74485;BMP280;62942;52.462;10.846;2023-06-14T05:38:39;101120;;;
74485;BMP280;62942;52.462;10.846;2023-06-14T05:39:49;101110;;;
74485;BMP280;62942;52.462;10.846;2023-06-14T05:40:59;101110;;;
74485;BMP280;62942;52.462;10.846;2023-06-14T05:41:59;101110;;;
74485;BMP280;62942;52.462;10.846;2023-06-14T05:42:59;101110;;;
74485;BMP280;62942;52.462;10.846;2023-06-14T05:44:09;101120;;;
74485;BMP280;62942;52.462;10.846;2023-06-14T05:45:09;101110;;;
74485;BMP280;62942;52.462;10.846;2023-06-14T05:46:09;101120;;;
74485;BMP280;62942;52.462;10.846;2023-06-14T05:47:19;101130;;;
74485;BMP280;62942;52.462;10.846;2023-06-14T05:48:19;101130;;;
74485;BMP280;62942;52.462;10.846;2023-06-14T05:49:29;101130;;;
74485;BMP280;62942;52.462;10.846;2023-06-14T05:50:39;101120;;;
74485;BMP280;62942;52.462;10.846;2023-06-14T05:51:39;101130;;;
74485;BMP280;62942;52.462;10.846;2023-06-14T05:52:49;101120;;;
74485;BMP280;62942;52.462;10.846;2023-06-14T05:53:59;101130;;;
74485;BMP280;62942;52.462;10.846;2023-06-14T05:54:59;101130;;;
74485;BMP280;62942;52.462;10.846;2023-06-14T05:56:09;101140;;;
74485;BMP280;62942;52.462;10.846;2023-06-14T05:57:10;101130;;;
74485;BMP280;62942;52.462;10.846;2023-06-14T05:58:19;101140;;;
74485;BMP280;62942;52.462;10.846;2023-06-14T05:59:19;101140;;;
74485;BMP280;62942;52.462;10.846;2023-06-14T06:00:29;101140;;;
74485;BMP280;62942;52.462;10.846;2023-06-14T06:01:39;101140;;;
74485;BMP280;62942;52.462;10.846;2023-06-14T06:02:49;101140;;;
74485;BMP280;62942;52.462;10.846;2023-06-14T06:03:59;101140;;;
74485;BMP280;62942;52.462;10.846;2023-06-14T06:05:09;101140;;;
74485;BMP280;62942;52.462;10.846;2023-06-14T06:06:19;101150;;;
74485;BMP280;62942;52.462;10.846;2023-06-14T06:07:19;101150;;;
74485;BMP280;62942;52.462;10.846;2023-06-14T06:08:29;101150;;;
74485;BMP280;62942;52.462;10.846;2023-06-14T06:09:39;101150;;;
74485;BMP280;62942;52.462;10.846;2023-06-14T06:10:39;101140;;;
74485;BMP280;62942;52.462;10.846;2023-06-14T06:11:49;101140;;;
74485;BMP280;62942;52.462;10.846;2023-06-14T06:12:49;101140;;;
74485;BMP280;62942;52.462;10.846;2023-06-14T06:13:59;101150;;;
74485;BMP280;62942;52.462;10.846;2023-06-14T06:15:09;101120;;;
74485;BMP280;62942;52.462;10.846;2023-06-14T06:16:09;101130;;;
74485;BMP280;62942;52.462;10.846;2023-06-14T06:17:19;101130;;;
74485;BMP280;62942;52.462;10.846;2023-06-14T06:18:19;101140;;;
74485;BMP280;62942;52.462;10.846;2023-06-14T06:19:29;101140;;;
74485;BMP280;62942;52.462;10.846;2023-06-14T06:20:39;101140;;;
74485;BMP280;62942;52.462;10.846;2023-06-14T06:21:49;101140;;;
74485;BMP280;62942;52.462;10.846;2023-06-14T06:22:59;101140;;;
74485;BMP280;62942;52.462;10.846;2023-06-14T06:23:59;101140;;;
74485;BMP280;62942;52.462;10.846;2023-06-14T06:25:09;101140;;;
74485;BMP280;62942;52.462;10.846;2023-06-14T06:26:19;101150;;;
74485;BMP280;62942;52.462;10.846;2023-06-14T06:27:29;101150;;;
74485;BMP280;62942;52.462;10.846;2023-06-14T06:28:29;101150;;;
74485;BMP280;62942;52.462;10.846;2023-06-14T06:29:29;101140;;;
74485;BMP280;62942;52.462;10.846;2023-06-14T06:30:39;101150;;;
74485;BMP280;62942;52.462;10.846;2023-06-14T06:31:49;101150;;;
74485;BMP280;62942;52.462;10.846;2023-06-14T06:32:49;101140;;;
74485;BMP280;62942;52.462;10.846;2023-06-14T06:33:49;101140;;;
74485;BMP280;62942;52.462;10.846;2023-06-14T06:34:59;101150;;;
74485;BMP280;62942;52.462;10.846;2023-06-14T06:36:09;101150;;;
74485;BMP280;62942;52.462;10.846;2023-06-14T06:37:09;101150;;;
74485;BMP280;62942;52.462;10.846;2023-06-14T06:38:19;101150;;;
74485;BMP280;62942;52.462;10.846;2023-06-14T06:39:19;101150;;;
74485;BMP280;62942;52.462;10.846;2023-06-14T06:40:29;101150;;;
74485;BMP280;62942;52.462;10.846;2023-06-14T06:41:29;101150;;;
74485;BMP280;62942;52.462;10.846;2023-06-14T06:42:39;101160;;;
74485;BMP280;62942;52.462;10.846;2023-06-14T06:43:49;101150;;;
74485;BMP280;62942;52.462;10.846;2023-06-14T06:44:59;101150;;;
74485;BMP280;62942;52.462;10.846;2023-06-14T06:46:09;101150;;;
74485;BMP280;62942;52.462;10.846;2023-06-14T06:47:09;101150;;;
74485;BMP280;62942;52.462;10.846;2023-06-14T06:48:09;101150;;;
74485;BMP280;62942;52.462;10.846;2023-06-14T06:49:19;101150;;;
74485;BMP280;62942;52.462;10.846;2023-06-14T06:50:29;101160;;;
74485;BMP280;62942;52.462;10.846;2023-06-14T06:51:40;101160;;;
74485;BMP280;62942;52.462;10.846;2023-06-14T06:52:49;101150;;;
74485;BMP280;62942;52.462;10.846;2023-06-14T06:53:51;101150;;;
74485;BMP280;62942;52.462;10.846;2023-06-14T06:54:59;101160;;;
74485;BMP280;62942;52.462;10.846;2023-06-14T06:56:09;101160;;;
74485;BMP280;62942;52.462;10.846;2023-06-14T06:57:19;101160;;;
74485;BMP280;62942;52.462;10.846;2023-06-14T06:58:29;101160;;;